createdAt,value
2019-03-08T00:00:25.174Z,63.53
2019-03-08T00:02:53.724Z,63.94
2019-03-08T00:05:22.435Z,64.21
2019-03-08T00:07:50.933Z,64.16
2019-03-08T00:10:19.392Z,64.35
2019-03-08T00:12:47.874Z,64.33
2019-03-08T00:15:16.587Z,64.60
2019-03-08T00:17:45.085Z,64.42
2019-03-08T00:20:13.751Z,64.31
2019-03-08T00:22:42.238Z,64.80
2019-03-08T00:25:12.891Z,64.88
2019-03-08T00:27:42.963Z,64.99
2019-03-08T00:30:14.376Z,64.60
2019-03-08T00:32:43.297Z,64.65
2019-03-08T00:35:12.603Z,64.85
2019-03-08T00:37:41.053Z,64.84
2019-03-08T00:40:15.839Z,64.61
2019-03-08T00:42:44.311Z,64.78
2019-03-08T00:45:15.026Z,65.19
2019-03-08T00:47:43.740Z,65.37
2019-03-08T00:50:12.469Z,65.45
2019-03-08T00:52:41.006Z,65.39
2019-03-08T00:55:11.709Z,65.71
2019-03-08T00:57:40.168Z,65.74
2019-03-08T01:00:21.499Z,65.80
2019-03-08T01:02:50.031Z,66.09
2019-03-08T01:05:18.892Z,66.05
2019-03-08T01:07:47.351Z,66.00
2019-03-08T01:10:18.690Z,66.56
2019-03-08T01:12:47.398Z,66.59
2019-03-08T01:15:17.558Z,66.50
2019-03-08T01:17:46.092Z,67.00
2019-03-08T01:20:16.520Z,66.76
2019-03-08T01:22:45.118Z,66.67
2019-03-08T01:25:14.366Z,67.55
2019-03-08T01:28:03.578Z,67.89
2019-03-08T01:30:33.296Z,67.94
2019-03-08T01:33:01.775Z,67.95
2019-03-08T01:35:30.259Z,67.87
2019-03-08T01:37:58.912Z,67.92
2019-03-08T01:40:27.641Z,67.80
2019-03-08T01:42:56.275Z,67.07
2019-03-08T01:45:24.790Z,68.35
2019-03-08T01:47:53.328Z,67.57
2019-03-08T01:50:22.178Z,67.27
2019-03-08T01:52:50.694Z,67.41
2019-03-08T01:55:19.228Z,68.60
2019-03-08T01:57:49.262Z,67.62
2019-03-08T02:00:22.031Z,67.92
2019-03-08T02:02:50.731Z,68.43
2019-03-08T02:05:20.237Z,67.63
2019-03-08T02:07:48.708Z,68.45
2019-03-08T02:10:17.650Z,68.23
2019-03-08T02:12:46.128Z,68.17
2019-03-08T02:15:16.164Z,68.44
2019-03-08T02:17:44.777Z,68.02
2019-03-08T02:20:18.737Z,67.57
2019-03-08T02:22:47.221Z,68.28
2019-03-08T02:25:15.772Z,67.86
2019-03-08T02:27:44.404Z,67.60
2019-03-08T02:30:15.072Z,67.53
2019-03-08T02:32:43.725Z,68.07
2019-03-08T02:35:12.875Z,67.97
2019-03-08T02:37:41.447Z,67.83
2019-03-08T02:40:34.910Z,67.59
2019-03-08T02:43:11.142Z,67.83
2019-03-08T02:45:39.649Z,67.66
2019-03-08T02:48:08.182Z,67.31
2019-03-08T02:50:36.665Z,67.51
2019-03-08T02:53:05.229Z,67.59
2019-03-08T02:55:33.965Z,67.23
2019-03-08T02:58:02.549Z,67.31
2019-03-08T03:00:34.142Z,67.30
2019-03-08T03:03:02.659Z,67.09
2019-03-08T03:05:31.165Z,67.20
2019-03-08T03:07:59.648Z,67.11
2019-03-08T03:10:28.128Z,67.06
2019-03-08T03:12:56.615Z,66.70
2019-03-08T03:15:25.117Z,66.50
2019-03-08T03:17:53.594Z,66.54
2019-03-08T03:20:22.473Z,66.55
2019-03-08T03:22:50.971Z,66.34
2019-03-08T03:25:19.533Z,66.13
2019-03-08T03:27:48.036Z,66.18
2019-03-08T03:30:20.496Z,66.33
2019-03-08T03:32:48.952Z,66.23
2019-03-08T03:35:17.524Z,66.26
2019-03-08T03:37:46.390Z,66.12
2019-03-08T03:40:19.218Z,66.13
2019-03-08T03:42:47.703Z,66.00
2019-03-08T03:45:20.289Z,65.66
2019-03-08T03:47:48.819Z,65.70
2019-03-08T03:50:18.670Z,65.69
2019-03-08T03:52:47.582Z,65.74
2019-03-08T03:55:18.006Z,65.62
2019-03-08T03:57:46.537Z,65.28
2019-03-08T04:00:23.440Z,65.08
2019-03-08T04:02:52.025Z,65.11
2019-03-08T04:05:20.632Z,65.10
2019-03-08T04:07:49.089Z,64.68
2019-03-08T04:10:18.543Z,64.50
2019-03-08T04:12:47.054Z,64.33
2019-03-08T04:15:22.292Z,63.92
2019-03-08T04:17:50.920Z,64.32
2019-03-08T04:20:20.581Z,63.31
2019-03-08T04:22:49.030Z,63.83
2019-03-08T04:25:17.577Z,63.58
2019-03-08T04:27:46.128Z,63.88
2019-03-08T04:30:19.284Z,63.62
2019-03-08T04:32:47.802Z,63.26
2019-03-08T04:35:16.283Z,63.27
2019-03-08T04:37:44.757Z,62.63
2019-03-08T04:40:14.367Z,62.71
2019-03-08T04:42:42.916Z,62.73
2019-03-08T04:45:13.429Z,62.39
2019-03-08T04:47:41.891Z,62.65
2019-03-08T04:50:14.401Z,62.61
2019-03-08T04:52:42.849Z,62.75
2019-03-08T04:55:18.774Z,62.33
2019-03-08T04:57:47.523Z,62.64
2019-03-08T05:00:18.499Z,62.38
2019-03-08T05:02:46.996Z,62.45
2019-03-08T05:05:15.543Z,62.31
2019-03-08T05:07:44.210Z,62.65
2019-03-08T05:10:15.471Z,62.90
2019-03-08T05:12:43.939Z,62.68
2019-03-08T05:15:12.550Z,62.27
2019-03-08T05:17:41.033Z,62.45
2019-03-08T05:20:11.612Z,62.50
2019-03-08T05:22:40.159Z,61.90
2019-03-08T05:25:11.001Z,62.56
2019-03-08T05:27:39.503Z,62.30
2019-03-08T05:30:11.079Z,62.27
2019-03-08T05:32:39.530Z,61.84
2019-03-08T05:35:09.130Z,61.67
2019-03-08T05:37:37.612Z,61.88
2019-03-08T05:40:10.924Z,61.47
2019-03-08T05:42:39.434Z,61.89
2019-03-08T05:45:12.274Z,62.00
2019-03-08T05:47:40.789Z,61.59
2019-03-08T05:50:10.421Z,61.51
2019-03-08T05:52:38.910Z,62.07
2019-03-08T05:55:10.044Z,61.70
2019-03-08T05:57:38.530Z,61.64
2019-03-08T06:00:13.511Z,61.77
2019-03-08T06:02:42.002Z,61.63
2019-03-08T06:05:10.555Z,61.90
2019-03-08T06:07:39.222Z,61.57
2019-03-08T06:10:31.094Z,61.53
2019-03-08T06:13:00.810Z,61.94
2019-03-08T06:15:29.277Z,61.17
2019-03-08T06:17:58.004Z,61.31
2019-03-08T06:20:26.543Z,61.38
2019-03-08T06:22:55.115Z,61.49
2019-03-08T06:25:23.579Z,61.01
2019-03-08T06:27:52.091Z,61.43
2019-03-08T06:30:20.627Z,61.40
2019-03-08T06:32:49.399Z,61.46
2019-03-08T06:35:17.847Z,61.59
2019-03-08T06:37:46.328Z,61.26
2019-03-08T06:40:15.144Z,61.17
2019-03-08T06:42:43.672Z,62.06
2019-03-08T06:45:16.595Z,61.40
2019-03-08T06:47:44.854Z,61.81
2019-03-08T06:50:15.873Z,61.90
2019-03-08T06:52:44.456Z,62.06
2019-03-08T06:55:14.571Z,62.00
2019-03-08T06:57:43.080Z,62.17
2019-03-08T07:00:21.789Z,62.27
2019-03-08T07:02:50.249Z,62.31
2019-03-08T07:05:18.701Z,62.03
2019-03-08T07:07:47.188Z,62.23
2019-03-08T07:10:15.677Z,62.35
2019-03-08T07:12:44.145Z,62.35
2019-03-08T07:15:12.678Z,62.36
2019-03-08T07:17:41.188Z,62.30
2019-03-08T07:20:17.324Z,62.43
2019-03-08T07:23:03.366Z,62.40
2019-03-08T07:25:51.433Z,62.63
2019-03-08T07:28:17.398Z,62.74
2019-03-08T07:31:06.002Z,62.73
2019-03-08T07:33:53.167Z,62.95
2019-03-08T07:36:24.739Z,63.07
2019-03-08T07:39:00.291Z,63.07
2019-03-08T07:41:30.392Z,62.87
2019-03-08T07:44:12.354Z,62.87
2019-03-08T07:46:45.341Z,62.83
2019-03-08T07:49:15.462Z,62.87
2019-03-08T07:51:54.786Z,63.01
2019-03-08T07:54:27.405Z,63.11
2019-03-08T07:56:57.539Z,63.07
2019-03-08T07:59:39.649Z,63.14
2019-03-08T08:02:09.963Z,63.18
2019-03-08T08:04:45.929Z,63.14
2019-03-08T08:07:21.882Z,63.19
2019-03-08T08:09:54.636Z,63.00
2019-03-08T08:12:27.703Z,62.78
2019-03-08T08:15:00.816Z,63.14
2019-03-08T08:17:36.877Z,62.97
2019-03-08T08:20:16.602Z,62.97
2019-03-08T08:22:46.970Z,63.11
2019-03-08T08:25:36.817Z,63.12
2019-03-08T08:28:21.137Z,63.34
2019-03-08T08:30:51.202Z,63.36
2019-03-08T08:33:21.343Z,63.64
2019-03-08T08:35:51.528Z,63.48
2019-03-08T08:38:24.248Z,63.86
2019-03-08T08:41:00.198Z,63.93
2019-03-08T08:43:32.747Z,64.10
2019-03-08T08:46:08.521Z,64.08
2019-03-08T08:48:44.093Z,64.05
2019-03-08T08:51:14.477Z,63.81
2019-03-08T08:53:44.677Z,63.84
2019-03-08T08:56:23.641Z,63.97
2019-03-08T08:58:53.773Z,64.58
2019-03-08T09:01:35.841Z,63.86
2019-03-08T09:04:06.234Z,64.21
2019-03-08T09:06:36.332Z,64.04
2019-03-08T09:09:21.728Z,64.19
2019-03-08T09:11:55.127Z,64.34
2019-03-08T09:14:30.807Z,64.09
2019-03-08T09:17:00.917Z,64.11
2019-03-08T09:19:33.938Z,64.51
2019-03-08T09:22:12.685Z,64.67
2019-03-08T09:24:42.852Z,64.39
2019-03-08T09:27:12.967Z,64.50
2019-03-08T09:29:59.219Z,65.68
2019-03-08T09:32:32.343Z,67.05
2019-03-08T09:35:05.377Z,67.45
2019-03-08T09:37:35.495Z,67.15
2019-03-08T09:40:10.361Z,66.93
2019-03-08T09:42:58.675Z,66.92
2019-03-08T09:45:29.128Z,67.17
2019-03-08T09:48:11.338Z,67.19
2019-03-08T09:50:50.980Z,66.75
2019-03-08T09:53:27.349Z,67.28
2019-03-08T09:55:57.456Z,67.98
2019-03-08T09:58:29.968Z,69.80
2019-03-08T10:01:00.343Z,69.86
2019-03-08T10:03:46.641Z,69.89
2019-03-08T10:06:32.027Z,70.13
2019-03-08T10:09:04.851Z,72.19
2019-03-08T10:11:34.971Z,71.78
2019-03-08T10:14:11.068Z,69.72
2019-03-08T10:16:41.203Z,70.83
2019-03-08T10:19:27.684Z,70.35
2019-03-08T10:22:03.405Z,70.24
2019-03-08T10:24:42.877Z,69.83
2019-03-08T10:27:21.955Z,69.87
2019-03-08T10:30:00.919Z,70.25
2019-03-08T10:32:39.736Z,70.16
2019-03-08T10:35:28.346Z,70.06
2019-03-08T10:37:58.466Z,69.42
2019-03-08T10:40:28.620Z,69.32
2019-03-08T10:43:13.449Z,68.69
2019-03-08T10:45:49.469Z,69.07
2019-03-08T10:48:22.552Z,68.44
2019-03-08T10:50:58.591Z,68.86
2019-03-08T10:53:31.396Z,67.77
2019-03-08T10:56:13.536Z,67.89
2019-03-08T10:58:49.366Z,66.08
2019-03-08T11:01:34.879Z,66.71
2019-03-08T11:04:07.709Z,67.11
2019-03-08T11:06:50.068Z,69.18
2019-03-08T11:09:32.902Z,70.15
2019-03-08T11:12:17.841Z,70.49
2019-03-08T11:14:50.647Z,71.81
2019-03-08T11:17:23.588Z,74.43
2019-03-08T11:19:53.684Z,74.18
2019-03-08T11:22:26.667Z,73.69
2019-03-08T11:24:56.764Z,75.20
2019-03-08T11:27:26.908Z,75.55
2019-03-08T11:30:15.183Z,77.28
2019-03-08T11:32:50.880Z,76.73
2019-03-08T11:35:26.608Z,75.25
2019-03-08T11:37:59.541Z,77.27
2019-03-08T11:40:44.576Z,81.35
2019-03-08T11:43:14.676Z,79.62
2019-03-08T11:45:50.610Z,80.35
2019-03-08T11:48:36.131Z,80.94
2019-03-08T11:51:06.287Z,80.94
2019-03-08T11:53:56.203Z,78.44
2019-03-08T11:56:40.558Z,80.89
2019-03-08T11:59:10.664Z,80.27
2019-03-08T12:01:46.630Z,80.06
2019-03-08T12:04:19.404Z,81.27
2019-03-08T12:07:04.657Z,83.79
2019-03-08T12:09:40.620Z,81.61
2019-03-08T12:12:26.013Z,83.02
2019-03-08T12:14:58.648Z,81.58
2019-03-08T12:17:28.812Z,82.98
2019-03-08T12:20:13.946Z,82.31
2019-03-08T12:23:00.522Z,81.17
2019-03-08T12:25:30.627Z,81.64
2019-03-08T12:28:00.745Z,83.45
2019-03-08T12:30:36.823Z,80.61
2019-03-08T12:33:10.064Z,79.71
2019-03-08T12:35:40.185Z,79.09
2019-03-08T12:38:25.326Z,78.08
2019-03-08T12:41:11.670Z,76.83
2019-03-08T12:43:47.678Z,76.69
2019-03-08T12:46:29.516Z,75.89
2019-03-08T12:48:59.640Z,75.38
2019-03-08T12:51:32.591Z,73.83
2019-03-08T12:54:19.552Z,73.34
2019-03-08T12:57:06.418Z,71.90
2019-03-08T12:59:38.991Z,70.52
2019-03-08T13:02:09.099Z,71.39
2019-03-08T13:04:41.980Z,72.10
2019-03-08T13:07:20.629Z,70.44
2019-03-08T13:09:49.126Z,71.02
2019-03-08T13:12:17.665Z,71.01
2019-03-08T13:14:46.225Z,70.75
2019-03-08T13:17:14.778Z,70.44
2019-03-08T13:19:43.364Z,70.29
2019-03-08T13:22:11.894Z,70.39
2019-03-08T13:24:40.386Z,69.66
2019-03-08T13:27:08.856Z,70.41
2019-03-08T13:29:37.370Z,70.38
2019-03-08T13:32:05.903Z,70.02
2019-03-08T13:34:35.318Z,71.20
2019-03-08T13:37:03.859Z,70.73
2019-03-08T13:39:32.348Z,70.64
2019-03-08T13:42:00.822Z,70.81
2019-03-08T13:44:29.306Z,70.07
2019-03-08T13:46:57.787Z,69.92
2019-03-08T13:49:26.277Z,70.05
2019-03-08T13:51:54.729Z,70.12
2019-03-08T13:54:23.211Z,68.42
2019-03-08T13:56:51.695Z,67.42
2019-03-08T13:59:20.170Z,65.87
2019-03-08T14:01:48.628Z,64.61
2019-03-08T14:04:17.142Z,64.48
2019-03-08T14:06:45.607Z,65.17
2019-03-08T14:09:15.465Z,64.38
2019-03-08T14:11:44.158Z,64.84
2019-03-08T14:14:12.690Z,64.77
2019-03-08T14:16:41.163Z,62.97
2019-03-08T14:19:09.723Z,61.70
2019-03-08T14:21:38.172Z,60.96
2019-03-08T14:24:06.657Z,63.24
2019-03-08T14:26:35.118Z,61.59
2019-03-08T14:29:04.032Z,60.75
2019-03-08T14:31:36.783Z,58.57
2019-03-08T14:34:05.273Z,60.44
2019-03-08T14:36:33.737Z,59.90
2019-03-08T14:39:04.259Z,59.99
2019-03-08T14:41:34.058Z,60.61
2019-03-08T14:44:04.198Z,58.05
2019-03-08T14:46:34.310Z,59.19
2019-03-08T14:49:02.788Z,60.03
2019-03-08T14:51:31.282Z,58.88
2019-03-08T14:53:59.758Z,57.11
2019-03-08T14:56:31.932Z,58.33
2019-03-08T14:58:58.870Z,57.05
2019-03-08T15:01:27.362Z,57.26
2019-03-08T15:03:56.845Z,58.70
2019-03-08T15:06:27.990Z,58.48
2019-03-08T15:08:56.320Z,59.54
2019-03-08T15:11:25.148Z,58.90
2019-03-08T15:13:58.087Z,58.77
2019-03-08T15:16:23.881Z,59.39
2019-03-08T15:18:52.355Z,59.13
2019-03-08T15:21:20.837Z,58.31
2019-03-08T15:23:50.859Z,59.47
2019-03-08T15:26:19.584Z,59.16
2019-03-08T15:28:48.024Z,59.88
2019-03-08T15:31:16.507Z,60.21
2019-03-08T15:33:44.987Z,60.64
2019-03-08T15:36:13.483Z,60.87
2019-03-08T15:38:42.226Z,61.17
2019-03-08T15:41:10.712Z,60.58
2019-03-08T15:43:39.179Z,60.19
2019-03-08T15:46:07.674Z,60.66
2019-03-08T15:48:36.143Z,60.38
2019-03-08T15:51:04.638Z,60.64
2019-03-08T15:53:33.104Z,59.73
2019-03-08T15:56:01.667Z,59.61
2019-03-08T15:58:30.199Z,59.92
2019-03-08T16:00:58.738Z,59.20
2019-03-08T16:03:30.227Z,59.92
2019-03-08T16:05:57.421Z,60.20
2019-03-08T16:08:25.881Z,59.99
2019-03-08T16:10:54.431Z,60.45
2019-03-08T16:13:22.903Z,60.58
2019-03-08T16:15:51.397Z,60.69
2019-03-08T16:18:19.905Z,60.65
2019-03-08T16:20:48.405Z,60.98
2019-03-08T16:23:16.875Z,61.03
2019-03-08T16:25:47.955Z,61.24
2019-03-08T16:28:15.591Z,61.43
2019-03-08T16:30:47.452Z,61.45
2019-03-08T16:33:26.096Z,61.68
2019-03-08T16:36:16.164Z,61.79
2019-03-08T16:38:46.204Z,61.75
2019-03-08T16:41:16.168Z,62.40
2019-03-08T16:44:02.592Z,62.24
2019-03-08T16:46:41.580Z,62.26
2019-03-08T16:49:14.644Z,62.30
2019-03-08T16:51:45.648Z,62.45
2019-03-08T16:54:24.629Z,62.23
2019-03-08T16:56:54.956Z,62.45
2019-03-08T16:59:34.043Z,62.57
2019-03-08T17:02:04.205Z,62.53
2019-03-08T17:04:39.954Z,62.43
2019-03-08T17:07:16.271Z,62.66
2019-03-08T17:09:49.191Z,62.58
2019-03-08T17:12:19.328Z,62.83
2019-03-08T17:14:55.184Z,62.47
2019-03-08T17:17:31.304Z,62.69
2019-03-08T17:20:04.084Z,62.51
2019-03-08T17:22:36.924Z,62.20
2019-03-08T17:25:14.154Z,62.04
2019-03-08T17:27:56.615Z,61.84
2019-03-08T17:30:41.859Z,62.03
2019-03-08T17:33:24.042Z,61.97
2019-03-08T17:35:56.817Z,61.92
2019-03-08T17:38:35.875Z,61.87
2019-03-08T17:41:22.614Z,61.88
2019-03-08T17:43:52.911Z,61.91
2019-03-08T17:46:28.771Z,61.73
2019-03-08T17:48:59.268Z,61.58
2019-03-08T17:51:44.750Z,61.54
2019-03-08T17:54:17.533Z,61.25
2019-03-08T17:56:50.415Z,61.37
2019-03-08T17:59:23.276Z,61.44
2019-03-08T18:02:05.039Z,61.62
2019-03-08T18:04:40.707Z,61.55
2019-03-08T18:07:27.274Z,61.65
2019-03-08T18:10:03.370Z,61.62
2019-03-08T18:12:45.254Z,61.50
2019-03-08T18:15:15.401Z,61.58
2019-03-08T18:17:45.537Z,61.69
2019-03-08T18:20:18.479Z,61.95
2019-03-08T18:22:48.587Z,62.04
2019-03-08T18:25:24.770Z,62.09
2019-03-08T18:27:57.956Z,62.37
2019-03-08T18:30:30.661Z,62.48
2019-03-08T18:36:18.503Z,62.75
2019-03-08T18:38:51.491Z,62.79
2019-03-08T18:41:21.583Z,63.14
2019-03-08T18:44:00.709Z,62.97
2019-03-08T18:46:39.486Z,62.98
2019-03-08T18:49:18.538Z,63.33
2019-03-08T18:51:51.604Z,63.68
2019-03-08T18:57:05.387Z,63.61
2019-03-08T18:59:35.503Z,63.48
2019-03-08T19:02:21.882Z,63.62
2019-03-08T19:04:52.225Z,63.45
2019-03-08T19:07:34.320Z,63.54
2019-03-08T19:10:16.147Z,63.71
2019-03-08T19:13:02.891Z,64.08
2019-03-08T19:15:42.039Z,63.85
2019-03-08T19:18:17.994Z,63.66
2019-03-08T19:21:04.315Z,63.96
2019-03-08T19:23:40.013Z,64.03
2019-03-08T19:26:25.335Z,64.44
2019-03-08T19:28:55.464Z,63.84
2019-03-08T19:31:34.592Z,64.42
2019-03-08T19:34:04.714Z,64.23
2019-03-08T19:36:52.873Z,64.29
2019-03-08T19:39:28.829Z,65.15
2019-03-08T19:44:56.266Z,64.77
2019-03-08T19:47:26.403Z,65.45
2019-03-08T19:50:05.663Z,64.85
2019-03-08T19:52:41.650Z,65.86
2019-03-08T19:55:14.333Z,65.06
2019-03-08T19:57:50.437Z,65.41
2019-03-08T20:00:29.787Z,65.41
2019-03-08T20:03:17.394Z,65.53
2019-03-08T20:05:56.881Z,65.49
2019-03-08T20:08:27.057Z,65.46
2019-03-08T20:11:11.969Z,65.69
2019-03-08T20:13:48.108Z,65.76
2019-03-08T20:16:33.176Z,65.50
2019-03-08T20:19:03.391Z,65.75
2019-03-08T20:21:33.515Z,65.79
2019-03-08T20:24:03.851Z,65.50
2019-03-08T20:26:36.414Z,65.74
2019-03-08T20:29:06.547Z,65.86
2019-03-08T20:31:36.656Z,65.64
2019-03-08T20:34:23.561Z,65.92
2019-03-08T20:37:09.877Z,66.32
2019-03-08T20:39:46.431Z,66.96
2019-03-08T20:42:25.663Z,66.89
2019-03-08T20:44:58.551Z,66.61
2019-03-08T20:47:28.672Z,67.13
2019-03-08T20:49:57.148Z,66.56
2019-03-08T20:52:25.627Z,66.64
2019-03-08T20:54:54.122Z,66.87
2019-03-08T20:57:22.671Z,67.03
2019-03-08T20:59:51.175Z,67.63
2019-03-08T21:02:19.652Z,68.05
2019-03-08T21:04:48.460Z,67.72
2019-03-08T21:07:16.925Z,67.79
2019-03-08T21:09:45.437Z,67.51
2019-03-08T21:12:13.906Z,67.59
2019-03-08T21:14:42.390Z,68.65
2019-03-08T21:17:10.903Z,67.99
2019-03-08T21:19:39.388Z,68.42
2019-03-08T21:22:07.894Z,68.29
2019-03-08T21:24:36.420Z,68.64
2019-03-08T21:27:04.936Z,68.10
2019-03-08T21:29:33.415Z,68.68
2019-03-08T21:32:02.256Z,68.73
2019-03-08T21:34:30.751Z,69.84
2019-03-08T21:36:59.230Z,70.91
2019-03-08T21:39:27.712Z,69.65
2019-03-08T21:41:56.187Z,69.27
2019-03-08T21:44:24.746Z,70.89
2019-03-08T21:46:53.246Z,69.75
2019-03-08T21:49:21.757Z,70.62
2019-03-08T21:51:50.216Z,70.73
2019-03-08T21:54:18.738Z,71.35
2019-03-08T21:56:47.218Z,70.82
2019-03-08T21:59:16.097Z,70.77
2019-03-08T22:01:44.554Z,71.25
2019-03-08T22:04:14.674Z,70.68
2019-03-08T22:06:43.194Z,71.05
2019-03-08T22:09:22.300Z,71.71
2019-03-08T22:11:50.813Z,71.10
2019-03-08T22:14:19.298Z,70.52
2019-03-08T22:16:47.834Z,71.74
2019-03-08T22:19:16.326Z,71.73
2019-03-08T22:21:44.790Z,70.92
2019-03-08T22:24:13.910Z,70.94
2019-03-08T22:26:42.413Z,71.18
2019-03-08T22:29:10.905Z,71.87
2019-03-08T22:31:39.376Z,72.28
2019-03-08T22:34:07.893Z,72.36
2019-03-08T22:36:36.360Z,71.54
2019-03-08T22:39:06.787Z,70.89
2019-03-08T22:41:35.274Z,71.70
2019-03-08T22:44:03.741Z,70.82
2019-03-08T22:46:32.227Z,71.75
2019-03-08T22:49:00.706Z,72.28
2019-03-08T22:51:29.558Z,71.47
2019-03-08T22:53:58.055Z,71.47
2019-03-08T22:56:26.587Z,71.15
2019-03-08T22:58:55.053Z,72.33
2019-03-08T23:01:25.536Z,71.89
2019-03-08T23:03:54.759Z,72.35
2019-03-08T23:06:23.271Z,71.89
2019-03-08T23:08:51.740Z,71.65
2019-03-08T23:11:20.258Z,72.40
2019-03-08T23:13:48.741Z,71.53
2019-03-08T23:16:17.248Z,71.45
2019-03-08T23:18:45.728Z,71.47
2019-03-08T23:21:14.208Z,71.33
2019-03-08T23:23:42.664Z,71.64
2019-03-08T23:26:11.171Z,71.23
2019-03-08T23:31:36.644Z,72.28
2019-03-08T23:34:05.069Z,72.06
2019-03-08T23:36:33.565Z,71.84
2019-03-08T23:39:02.407Z,71.60
2019-03-08T23:41:30.905Z,71.66
2019-03-08T23:43:59.414Z,71.38
2019-03-08T23:46:27.902Z,71.26
2019-03-08T23:48:56.355Z,72.07
2019-03-08T23:51:24.861Z,71.64
2019-03-08T23:53:53.322Z,72.31
2019-03-08T23:56:21.800Z,72.51
2019-03-08T23:58:50.319Z,71.75
